Terminal Aerodrome Forecast
Issued by NWS

Home | Current Version | Previous Version | Text Only | Print | Product List | Glossary On
Versions: 1 2 3 4 5 6 7 8 9 10 11 12 13 14 15 16 17 18 19 20 21 22 23 24 25 26 27 28 29 30 31 32 33 34
000
FTUS44 KOUN 290302 AAA
TAFWWR
TAF AMD
KWWR 290302Z 2903/2924 16010KT P6SM VCTS SCT050CB OVC120
     FM291300 17008KT P6SM BKN100 BKN200=

USA.gov is the U.S. government's official web portal to all federal, state and local government web resources and services.